Time;durP1;ratioP1;P1;durP2;ratioP2;P2;SDS_P1;SDS_P2;PMS_P1;PMS_P2;Temp;Humidity;BMP_temperature;BMP_pressure;BME280_temperature;BME280_humidity;BME280_pressure;Samples;Min_cycle;Max_cycle;Signal;HPM_P1;HPM_P2
2021/06/07 00:01:15;;;;;;;4.93;3.65;;;;;;;;;;5027595;28;20022;-74
2021/06/07 00:03:40;;;;;;;4.60;3.58;;;;;;;;;;4994845;28;20069;-74
2021/06/07 00:06:06;;;;;;;4.15;3.25;;;;;;;;;;5011067;28;20439;-74
2021/06/07 00:08:31;;;;;;;4.70;3.80;;;;;;;;;;4994999;28;20033;-74
2021/06/07 00:10:57;;;;;;;5.55;3.78;;;;;;;;;;4995045;28;20057;-74
2021/06/07 00:13:24;;;;;;;4.30;3.35;;;;;;;;;;4978359;28;20060;-74
2021/06/07 00:15:51;;;;;;;4.78;3.20;;;;;;;;;;5011251;28;20373;-74
2021/06/07 00:18:17;;;;;;;4.85;3.60;;;;;;;;;;4984811;28;20056;-74
2021/06/07 00:20:46;;;;;;;4.43;3.58;;;;;;;;;;5030727;28;20052;-74
2021/06/07 00:23:12;;;;;;;5.18;3.00;;;;;;;;;;5014532;28;20033;-74
2021/06/07 00:25:38;;;;;;;4.70;3.80;;;;;;;;;;4981884;28;20112;-74
2021/06/07 00:28:04;;;;;;;4.43;3.20;;;;;;;;;;5014262;28;20159;-74
2021/06/07 00:30:30;;;;;;;5.07;3.00;;;;;;;;;;4997747;28;20044;-74
2021/06/07 00:32:56;;;;;;;4.13;3.38;;;;;;;;;;5013988;28;20108;-74
2021/06/07 00:35:25;;;;;;;5.35;3.78;;;;;;;;;;4981390;28;20476;-74
2021/06/07 00:37:51;;;;;;;4.75;3.55;;;;;;;;;;5014461;28;20046;-74
2021/06/07 00:40:17;;;;;;;4.95;3.00;;;;;;;;;;4997587;28;20112;-74
2021/06/07 00:42:42;;;;;;;4.22;3.00;;;;;;;;;;5013943;28;20034;-74
2021/06/07 00:45:13;;;;;;;4.45;2.75;;;;;;;;;;5014211;28;20494;-74
2021/06/07 00:47:39;;;;;;;4.47;3.22;;;;;;;;;;5014266;28;20072;-74
2021/06/07 00:50:11;;;;;;;4.32;3.22;;;;;;;;;;4997308;28;20026;-74
2021/06/07 00:52:37;;;;;;;;;;;;;;;;;;5011369;28;20064;-74
2021/06/07 00:55:04;;;;;;;5.60;3.38;;;;;;;;;;4994090;28;20350;-74
2021/06/07 00:57:29;;;;;;;4.13;2.85;;;;;;;;;;5026979;28;20072;-74
2021/06/07 00:59:55;;;;;;;4.50;3.25;;;;;;;;;;5010431;28;20033;-74
2021/06/07 01:02:20;;;;;;;4.57;3.08;;;;;;;;;;5010477;28;20041;-74
2021/06/07 01:04:46;;;;;;;4.78;2.88;;;;;;;;;;5010277;28;20064;-74
2021/06/07 01:07:11;;;;;;;4.15;3.22;;;;;;;;;;4994567;28;20032;-74
2021/06/07 01:09:37;;;;;;;5.00;3.30;;;;;;;;;;4994328;28;20486;-74
2021/06/07 01:12:03;;;;;;;3.60;2.78;;;;;;;;;;5014436;28;20034;-74
2021/06/07 01:14:29;;;;;;;4.35;2.78;;;;;;;;;;4998097;28;20064;-74
2021/06/07 01:16:54;;;;;;;4.72;2.83;;;;;;;;;;4998143;28;20480;-74
2021/06/07 01:19:20;;;;;;;3.13;2.60;;;;;;;;;;5028900;28;20108;-74
2021/06/07 01:21:45;;;;;;;4.03;2.72;;;;;;;;;;5017760;28;20033;-74
2021/06/07 01:24:11;;;;;;;4.28;2.85;;;;;;;;;;5017252;28;20045;-74
2021/06/07 01:26:36;;;;;;;3.38;2.58;;;;;;;;;;5017231;28;20059;-74
2021/06/07 01:29:02;;;;;;;3.85;2.15;;;;;;;;;;5001214;28;20033;-74
2021/06/07 01:31:27;;;;;;;3.70;2.53;;;;;;;;;;4984649;28;20116;-74
2021/06/07 01:33:54;;;;;;;3.08;2.10;;;;;;;;;;5033209;28;20102;-74
2021/06/07 01:36:19;;;;;;;3.45;2.08;;;;;;;;;;5001175;28;20032;-74
2021/06/07 01:38:45;;;;;;;2.47;1.70;;;;;;;;;;5017294;28;20037;-74
2021/06/07 01:41:13;;;;;;;3.17;2.00;;;;;;;;;;5033718;28;20029;-74
2021/06/07 01:43:39;;;;;;;3.42;2.13;;;;;;;;;;5017387;28;20030;-74
2021/06/07 01:46:04;;;;;;;2.33;1.70;;;;;;;;;;5000736;28;20112;-74
2021/06/07 01:48:30;;;;;;;3.90;2.20;;;;;;;;;;4997038;28;20116;-74
2021/06/07 01:50:58;;;;;;;3.03;2.35;;;;;;;;;;5013674;28;20022;-74
2021/06/07 01:53:25;;;;;;;3.15;1.70;;;;;;;;;;4981435;28;20034;-74
2021/06/07 01:55:53;;;;;;;3.15;1.73;;;;;;;;;;4997568;28;20022;-74
2021/06/07 01:58:19;;;;;;;2.58;1.80;;;;;;;;;;5013401;28;20546;-74
2021/06/07 02:01:02;;;;;;;3.17;1.75;;;;;;;;;;4998994;28;20820;-74
2021/06/07 02:03:27;;;;;;;2.88;1.95;;;;;;;;;;5016133;28;20132;-74
2021/06/07 02:05:55;;;;;;;3.28;1.80;;;;;;;;;;5033781;28;20475;-74
2021/06/07 02:08:21;;;;;;;3.30;1.80;;;;;;;;;;5033743;28;20052;-74
2021/06/07 02:10:52;;;;;;;2.45;1.45;;;;;;;;;;5016994;28;20375;-74
2021/06/07 02:13:17;;;;;;;2.53;1.83;;;;;;;;;;5032830;28;20069;-74
2021/06/07 02:15:43;;;;;;;3.40;1.70;;;;;;;;;;5032674;28;20057;-74
2021/06/07 02:18:10;;;;;;;2.55;1.77;;;;;;;;;;5011559;28;20037;-74
2021/06/07 02:20:36;;;;;;;4.20;1.88;;;;;;;;;;4996932;28;20033;-74
2021/06/07 02:23:01;;;;;;;2.33;1.63;;;;;;;;;;4995783;28;20462;-74
2021/06/07 02:25:27;;;;;;;4.32;2.17;;;;;;;;;;4996945;28;20361;-74
2021/06/07 02:27:52;;;;;;;2.63;1.90;;;;;;;;;;5012717;28;20546;-74
2021/06/07 02:30:21;;;;;;;3.47;1.60;;;;;;;;;;5012932;28;20384;-74
2021/06/07 02:32:46;;;;;;;3.67;1.88;;;;;;;;;;4996813;28;20099;-74
2021/06/07 02:35:13;;;;;;;2.65;1.67;;;;;;;;;;4996850;28;20436;-74
2021/06/07 02:37:39;;;;;;;4.07;2.10;;;;;;;;;;4996574;28;20029;-74
2021/06/07 02:40:06;;;;;;;2.78;1.60;;;;;;;;;;4996558;28;20038;-74
2021/06/07 02:42:32;;;;;;;4.20;1.73;;;;;;;;;;5012473;28;20026;-74
2021/06/07 02:44:57;;;;;;;3.42;1.73;;;;;;;;;;4996404;28;20032;-74
2021/06/07 02:47:23;;;;;;;2.10;1.30;;;;;;;;;;4996319;28;20164;-74
2021/06/07 02:49:48;;;;;;;2.50;1.58;;;;;;;;;;5010232;28;20086;-74
2021/06/07 02:52:14;;;;;;;3.00;1.70;;;;;;;;;;5015917;28;20033;-74
2021/06/07 02:54:39;;;;;;;2.88;1.50;;;;;;;;;;5032063;28;20037;-74
2021/06/07 02:57:05;;;;;;;2.58;1.60;;;;;;;;;;5015637;28;20033;-74
2021/06/07 02:59:31;;;;;;;2.67;1.50;;;;;;;;;;5015558;28;20040;-74
2021/06/07 03:01:56;;;;;;;2.42;1.55;;;;;;;;;;5012021;28;20065;-74
2021/06/07 03:04:21;;;;;;;2.60;1.50;;;;;;;;;;4979725;28;20056;-74
2021/06/07 03:06:47;;;;;;;3.15;1.70;;;;;;;;;;5012521;28;20097;-74
2021/06/07 03:09:12;;;;;;;3.28;1.45;;;;;;;;;;4995848;28;20053;-74
2021/06/07 03:11:38;;;;;;;1.98;1.30;;;;;;;;;;4995701;28;20052;-74
2021/06/07 03:14:03;;;;;;;3.35;1.50;;;;;;;;;;4995871;28;20034;-74
2021/06/07 03:16:29;;;;;;;4.13;1.73;;;;;;;;;;4995581;28;20030;-74
2021/06/07 03:18:55;;;;;;;2.50;1.65;;;;;;;;;;4991088;28;20125;-74
2021/06/07 03:21:20;;;;;;;2.97;1.27;;;;;;;;;;5032125;28;20029;-74
2021/06/07 03:23:46;;;;;;;2.58;1.55;;;;;;;;;;5031723;28;20044;-74
2021/06/07 03:26:11;;;;;;;1.92;1.13;;;;;;;;;;5031478;28;20056;-74
2021/06/07 03:28:37;;;;;;;1.80;1.30;;;;;;;;;;4998949;28;20129;-74
2021/06/07 03:31:02;;;;;;;2.13;1.27;;;;;;;;;;5030962;28;20032;-74
2021/06/07 03:33:28;;;;;;;2.70;1.40;;;;;;;;;;5014672;28;20041;-74
2021/06/07 03:35:55;;;;;;;2.90;1.45;;;;;;;;;;5015209;28;20026;-74
2021/06/07 03:38:21;;;;;;;3.13;1.35;;;;;;;;;;5031815;28;20055;-74
2021/06/07 03:40:48;;;;;;;2.90;1.30;;;;;;;;;;5031256;28;20356;-74
2021/06/07 03:43:14;;;;;;;2.92;1.67;;;;;;;;;;5031623;28;20033;-74
2021/06/07 03:45:39;;;;;;;3.80;1.70;;;;;;;;;;4998580;28;20036;-74
2021/06/07 03:48:05;;;;;;;2.38;1.40;;;;;;;;;;5031604;28;20041;-74
2021/06/07 03:50:31;;;;;;;2.47;1.27;;;;;;;;;;5014743;28;20033;-74
2021/06/07 03:52:56;;;;;;;2.00;1.17;;;;;;;;;;4999027;28;20108;-74
2021/06/07 03:55:23;;;;;;;3.25;1.60;;;;;;;;;;5031561;28;20352;-74
2021/06/07 03:57:48;;;;;;;2.40;1.50;;;;;;;;;;5014444;28;20029;-74
2021/06/07 04:00:15;;;;;;;2.42;1.67;;;;;;;;;;5030734;28;20495;-75
2021/06/07 04:02:41;;;;;;;1.92;1.33;;;;;;;;;;5027220;28;20033;-74
2021/06/07 04:05:08;;;;;;;3.45;1.83;;;;;;;;;;4995071;28;20083;-75
2021/06/07 04:07:36;;;;;;;3.38;1.45;;;;;;;;;;4994919;28;20038;-74
2021/06/07 04:10:06;;;;;;;2.55;1.35;;;;;;;;;;4995656;28;20088;-74
2021/06/07 04:12:32;;;;;;;2.42;1.73;;;;;;;;;;4994851;28;20026;-74
2021/06/07 04:14:57;;;;;;;2.50;1.58;;;;;;;;;;4994481;28;20056;-76
2021/06/07 04:17:23;;;;;;;2.70;1.85;;;;;;;;;;4995096;28;20101;-75
2021/06/07 04:19:48;;;;;;;2.67;1.58;;;;;;;;;;5013351;28;20077;-75
2021/06/07 04:22:14;;;;;;;5.43;1.73;;;;;;;;;;5014490;28;20037;-75
2021/06/07 04:24:39;;;;;;;2.72;1.60;;;;;;;;;;5030217;28;20041;-75
2021/06/07 04:27:09;;;;;;;2.67;1.60;;;;;;;;;;4997776;28;20052;-75
2021/06/07 04:29:34;;;;;;;2.67;1.40;;;;;;;;;;4999179;28;20073;-75
2021/06/07 04:32:00;;;;;;;2.83;1.52;;;;;;;;;;5014161;28;20091;-75
2021/06/07 04:34:25;;;;;;;3.10;1.08;;;;;;;;;;4981282;28;20037;-74
2021/06/07 04:36:53;;;;;;;4.00;1.55;;;;;;;;;;5030578;28;20033;-75
2021/06/07 04:39:18;;;;;;;2.58;1.40;;;;;;;;;;5029284;28;20041;-74
2021/06/07 04:41:44;;;;;;;6.22;2.38;;;;;;;;;;4994860;28;20099;-74
2021/06/07 04:44:09;;;;;;;7.15;2.13;;;;;;;;;;5011247;28;20668;-74
2021/06/07 04:46:34;;;;;;;10.05;2.55;;;;;;;;;;5012877;28;20048;-74
2021/06/07 04:49:00;;;;;;;7.95;2.38;;;;;;;;;;5006282;28;20065;-74
2021/06/07 04:51:25;;;;;;;7.30;2.28;;;;;;;;;;4994516;28;20129;-74
2021/06/07 04:53:51;;;;;;;5.07;2.60;;;;;;;;;;5010513;28;20079;-74
2021/06/07 04:56:16;;;;;;;9.13;2.75;;;;;;;;;;5010323;28;20049;-74
2021/06/07 04:58:42;;;;;;;4.50;2.50;;;;;;;;;;5026952;28;20030;-74
2021/06/07 05:01:08;;;;;;;5.70;2.55;;;;;;;;;;4994013;28;20396;-74
2021/06/07 05:03:34;;;;;;;5.93;3.00;;;;;;;;;;4994248;28;20049;-74
2021/06/07 05:06:00;;;;;;;6.40;2.40;;;;;;;;;;5010501;28;20038;-74
2021/06/07 05:08:26;;;;;;;5.57;2.03;;;;;;;;;;4994192;28;20492;-74
2021/06/07 05:10:52;;;;;;;5.50;1.92;;;;;;;;;;4977817;28;20033;-74
2021/06/07 05:13:17;;;;;;;5.32;2.65;;;;;;;;;;5010558;28;20454;-74
2021/06/07 05:15:43;;;;;;;4.40;2.65;;;;;;;;;;5011444;28;20033;-74
2021/06/07 05:18:08;;;;;;;4.70;2.20;;;;;;;;;;5015753;28;20034;-74
2021/06/07 05:20:34;;;;;;;3.00;1.50;;;;;;;;;;5013696;28;20537;-74
2021/06/07 05:22:59;;;;;;;3.50;1.92;;;;;;;;;;5013969;28;20964;-74
2021/06/07 05:25:26;;;;;;;6.22;2.10;;;;;;;;;;5029767;28;20108;-74
2021/06/07 05:27:52;;;;;;;3.47;1.67;;;;;;;;;;4997598;28;20041;-74
2021/06/07 05:30:19;;;;;;;4.70;1.90;;;;;;;;;;5013519;28;20437;-74
2021/06/07 05:32:44;;;;;;;4.60;2.25;;;;;;;;;;5013518;28;20029;-74
2021/06/07 05:35:11;;;;;;;3.95;1.90;;;;;;;;;;5013428;28;20407;-74
2021/06/07 05:37:36;;;;;;;4.82;2.33;;;;;;;;;;5013584;28;20097;-74
2021/06/07 05:40:03;;;;;;;4.90;1.90;;;;;;;;;;5029856;28;20094;-74
2021/06/07 05:42:28;;;;;;;7.85;2.47;;;;;;;;;;5013066;28;20383;-74
2021/06/07 05:44:54;;;;;;;4.65;2.17;;;;;;;;;;5027919;28;20042;-74
2021/06/07 05:47:19;;;;;;;4.13;1.88;;;;;;;;;;4996288;28;20425;-74
2021/06/07 05:49:45;;;;;;;3.70;1.92;;;;;;;;;;4993729;28;20042;-74
2021/06/07 05:52:11;;;;;;;5.75;1.90;;;;;;;;;;5010074;28;20378;-74
2021/06/07 05:54:36;;;;;;;5.40;1.80;;;;;;;;;;5009745;28;20116;-74
2021/06/07 05:57:02;;;;;;;4.57;1.48;;;;;;;;;;4995816;28;20475;-74
2021/06/07 05:59:28;;;;;;;4.68;1.85;;;;;;;;;;5013713;28;20041;-74
2021/06/07 06:01:53;;;;;;;5.25;1.67;;;;;;;;;;5013471;28;20026;-74
2021/06/07 06:04:19;;;;;;;5.05;2.10;;;;;;;;;;4997118;28;20129;-74
2021/06/07 06:06:44;;;;;;;5.10;2.10;;;;;;;;;;5013244;28;20030;-74
2021/06/07 06:09:10;;;;;;;4.15;1.88;;;;;;;;;;4997042;28;20037;-74
2021/06/07 06:11:35;;;;;;;4.47;2.30;;;;;;;;;;4980944;28;20074;-74
2021/06/07 06:14:02;;;;;;;4.72;1.77;;;;;;;;;;4997059;28;20033;-74
2021/06/07 06:16:27;;;;;;;6.95;1.95;;;;;;;;;;5013067;28;20037;-74
2021/06/07 06:18:53;;;;;;;3.85;1.80;;;;;;;;;;5007790;28;20033;-74
2021/06/07 06:21:18;;;;;;;7.68;1.92;;;;;;;;;;5000595;28;20030;-74
2021/06/07 06:23:44;;;;;;;5.03;1.75;;;;;;;;;;5032886;28;20037;-74
2021/06/07 06:26:10;;;;;;;4.25;2.00;;;;;;;;;;5016144;28;20068;-75
2021/06/07 06:28:36;;;;;;;8.10;4.60;;;;;;;;;;5032699;28;20037;-74
2021/06/07 06:31:03;;;;;;;7.50;5.40;;;;;;;;;;5015918;28;20041;-74
2021/06/07 06:33:28;;;;;;;30.90;24.15;;;;;;;;;;4999854;28;20042;-74
2021/06/07 06:35:54;;;;;;;28.83;22.30;;;;;;;;;;5016103;28;20041;-74
2021/06/07 06:38:19;;;;;;;34.95;27.63;;;;;;;;;;5016284;28;20091;-74
2021/06/07 06:40:45;;;;;;;48.17;34.30;;;;;;;;;;5013252;28;20117;-74
2021/06/07 06:43:10;;;;;;;45.05;30.90;;;;;;;;;;4981290;28;20038;-74
2021/06/07 06:45:36;;;;;;;39.15;30.20;;;;;;;;;;5014521;28;20034;-74
2021/06/07 06:48:02;;;;;;;39.85;30.35;;;;;;;;;;5016264;28;20152;-74
2021/06/07 06:50:36;;;;;;;43.33;29.30;;;;;;;;;;5031929;28;20031;-74
2021/06/07 06:53:02;;;;;;;38.30;28.30;;;;;;;;;;5001356;28;20392;-74
2021/06/07 06:55:28;;;;;;;36.40;27.80;;;;;;;;;;5015454;28;20032;-74
2021/06/07 06:57:54;;;;;;;35.80;25.83;;;;;;;;;;5015655;28;20030;-74
2021/06/07 07:00:22;;;;;;;32.83;23.13;;;;;;;;;;5015981;28;20025;-74
2021/06/07 07:02:47;;;;;;;27.05;20.58;;;;;;;;;;5028368;28;20037;-74
2021/06/07 07:05:13;;;;;;;26.58;19.40;;;;;;;;;;5012070;28;20044;-74
2021/06/07 07:07:38;;;;;;;26.60;19.67;;;;;;;;;;4995013;28;20033;-74
2021/06/07 07:10:05;;;;;;;26.02;18.52;;;;;;;;;;4995452;28;20034;-74
2021/06/07 07:12:30;;;;;;;20.70;15.75;;;;;;;;;;4995666;28;20105;-74
2021/06/07 07:14:56;;;;;;;19.75;14.13;;;;;;;;;;4995416;28;20117;-74
2021/06/07 07:17:21;;;;;;;19.63;14.57;;;;;;;;;;5012153;28;20448;-74
2021/06/07 07:19:48;;;;;;;16.75;12.82;;;;;;;;;;5013719;28;20021;-74
2021/06/07 07:22:16;;;;;;;20.50;13.95;;;;;;;;;;5015581;28;20033;-74
2021/06/07 07:24:47;;;;;;;17.42;12.95;;;;;;;;;;5015013;28;20541;-74
2021/06/07 07:27:13;;;;;;;17.48;13.23;;;;;;;;;;4999566;28;20029;-74
2021/06/07 07:29:39;;;;;;;17.02;11.75;;;;;;;;;;4998953;28;20450;-74
2021/06/07 07:32:05;;;;;;;15.23;11.77;;;;;;;;;;5015411;28;20107;-74
2021/06/07 07:34:31;;;;;;;16.27;11.60;;;;;;;;;;4982444;28;20111;-74
2021/06/07 07:36:57;;;;;;;14.93;11.77;;;;;;;;;;5015240;28;20037;-74
2021/06/07 07:39:22;;;;;;;15.93;11.40;;;;;;;;;;5014887;28;20112;-74
2021/06/07 07:41:48;;;;;;;14.85;11.98;;;;;;;;;;5031004;28;20025;-74
2021/06/07 07:44:13;;;;;;;14.23;11.98;;;;;;;;;;4998643;28;20045;-74
2021/06/07 07:46:38;;;;;;;12.85;10.55;;;;;;;;;;5014762;28;20037;-74
2021/06/07 07:49:04;;;;;;;13.07;10.43;;;;;;;;;;5014745;28;20048;-74
2021/06/07 07:51:29;;;;;;;13.70;11.38;;;;;;;;;;5014768;28;20076;-74
2021/06/07 07:53:55;;;;;;;14.68;10.93;;;;;;;;;;4998414;28;20037;-75
2021/06/07 07:56:20;;;;;;;13.57;10.82;;;;;;;;;;5014668;28;20030;-74
2021/06/07 07:58:46;;;;;;;12.75;9.48;;;;;;;;;;5014891;28;20034;-74
2021/06/07 08:01:12;;;;;;;11.73;9.95;;;;;;;;;;4994763;28;20018;-75
2021/06/07 08:03:37;;;;;;;13.07;9.93;;;;;;;;;;5010781;28;20041;-75
2021/06/07 08:06:03;;;;;;;14.63;10.65;;;;;;;;;;5011039;28;20037;-75
2021/06/07 08:08:28;;;;;;;14.43;10.27;;;;;;;;;;4995076;28;20034;-75
2021/06/07 08:10:55;;;;;;;10.63;8.88;;;;;;;;;;4994884;28;20558;-74
2021/06/07 08:13:22;;;;;;;11.38;8.65;;;;;;;;;;4979052;28;20046;-74
2021/06/07 08:15:49;;;;;;;10.95;8.50;;;;;;;;;;4978318;28;20044;-74
2021/06/07 08:18:14;;;;;;;11.15;9.20;;;;;;;;;;5001007;28;20037;-74
2021/06/07 08:20:40;;;;;;;11.32;8.95;;;;;;;;;;5013002;28;20049;-75
2021/06/07 08:23:05;;;;;;;12.10;8.27;;;;;;;;;;4998227;28;20037;-74
2021/06/07 08:25:31;;;;;;;10.10;8.00;;;;;;;;;;5013902;28;20021;-74
2021/06/07 08:27:56;;;;;;;15.57;8.82;;;;;;;;;;5014633;28;20100;-74
2021/06/07 08:30:22;;;;;;;9.90;8.00;;;;;;;;;;4997796;28;20442;-74
2021/06/07 08:32:48;;;;;;;9.15;7.18;;;;;;;;;;5030589;28;20534;-75
2021/06/07 08:35:13;;;;;;;10.40;8.00;;;;;;;;;;5014046;28;20033;-74
2021/06/07 08:37:39;;;;;;;9.07;7.60;;;;;;;;;;4997895;28;20040;-74
2021/06/07 08:40:06;;;;;;;10.82;6.68;;;;;;;;;;5013985;28;20022;-74
2021/06/07 08:42:33;;;;;;;9.25;7.38;;;;;;;;;;5014489;28;20060;-74
2021/06/07 08:44:58;;;;;;;9.18;6.97;;;;;;;;;;4997377;28;20510;-74
2021/06/07 08:47:24;;;;;;;9.18;6.90;;;;;;;;;;5013961;28;20041;-74
2021/06/07 08:49:49;;;;;;;8.77;6.82;;;;;;;;;;4993866;28;20041;-75
2021/06/07 08:52:18;;;;;;;9.98;7.05;;;;;;;;;;4978124;28;20029;-75
2021/06/07 08:54:44;;;;;;;7.85;6.20;;;;;;;;;;5010397;28;20025;-75
2021/06/07 08:57:10;;;;;;;7.05;5.82;;;;;;;;;;4994692;28;20061;-75
2021/06/07 08:59:35;;;;;;;7.45;5.80;;;;;;;;;;5010435;28;20438;-75
2021/06/07 09:02:02;;;;;;;11.35;6.18;;;;;;;;;;5019703;28;20034;-75
2021/06/07 09:04:27;;;;;;;6.50;5.40;;;;;;;;;;5010215;28;20045;-75
2021/06/07 09:06:53;;;;;;;8.73;5.97;;;;;;;;;;4994270;28;20105;-75
2021/06/07 09:09:19;;;;;;;7.75;5.85;;;;;;;;;;4994231;28;20041;-75
2021/06/07 09:12:00;;;;;;;7.82;6.20;;;;;;;;;;4994422;28;20065;-75
2021/06/07 09:14:30;;;;;;;6.13;5.00;;;;;;;;;;4995842;28;20054;-75
2021/06/07 09:16:56;;;;;;;7.32;4.88;;;;;;;;;;5010700;28;20439;-74
2021/06/07 09:19:29;;;;;;;5.78;4.72;;;;;;;;;;5009127;28;20112;-75
2021/06/07 09:22:19;;;;;;;7.32;5.68;;;;;;;;;;5013526;28;20037;-75
2021/06/07 09:25:05;;;;;;;6.50;4.50;;;;;;;;;;5029612;28;20029;-75
2021/06/07 09:27:30;;;;;;;4.63;3.28;;;;;;;;;;5014162;28;20081;-74
2021/06/07 09:29:56;;;;;;;5.60;4.55;;;;;;;;;;5013351;28;20064;-75
2021/06/07 09:32:21;;;;;;;6.10;4.75;;;;;;;;;;5000148;28;20074;-75
2021/06/07 09:35:01;;;;;;;6.80;4.40;;;;;;;;;;5001041;28;20492;-75
2021/06/07 09:37:27;;;;;;;7.35;5.35;;;;;;;;;;5019473;28;20029;-75
2021/06/07 09:39:52;;;;;;;6.95;3.80;;;;;;;;;;5017113;28;20087;-75
2021/06/07 09:42:20;;;;;;;7.35;4.97;;;;;;;;;;5001174;28;20091;-75
2021/06/07 09:44:52;;;;;;;7.70;5.80;;;;;;;;;;5033465;28;20034;-75
2021/06/07 09:47:18;;;;;;;8.98;6.90;;;;;;;;;;5016888;28;20034;-75
2021/06/07 09:50:11;;;;;;;19.73;17.63;;;;;;;;;;5033536;28;20036;-75
2021/06/07 09:52:44;;;;;;;37.00;32.20;;;;;;;;;;5033024;28;20038;-75
2021/06/07 09:55:17;;;;;;;26.25;21.35;;;;;;;;;;5033168;28;20053;-75
2021/06/07 09:57:44;;;;;;;16.25;12.27;;;;;;;;;;5017141;28;20460;-75
2021/06/07 10:00:10;;;;;;;11.88;9.65;;;;;;;;;;5033008;28;20087;-75
2021/06/07 10:02:36;;;;;;;12.55;9.50;;;;;;;;;;5029696;28;20451;-75
2021/06/07 10:05:02;;;;;;;8.80;6.35;;;;;;;;;;5013702;28;20040;-75
2021/06/07 10:07:27;;;;;;;7.68;5.03;;;;;;;;;;4981070;28;20034;-75
2021/06/07 10:10:11;;;;;;;7.50;5.53;;;;;;;;;;4997181;28;20084;-75
2021/06/07 10:12:39;;;;;;;9.00;5.97;;;;;;;;;;5014509;28;20040;-73
2021/06/07 10:15:05;;;;;;;7.38;5.03;;;;;;;;;;4996907;28;20030;-73
2021/06/07 10:17:31;;;;;;;7.03;4.82;;;;;;;;;;4997274;28;20060;-73
2021/06/07 10:22:38;;;;;;;8.15;4.50;;;;;;;;;;5017894;28;20029;-73
2021/06/07 10:25:05;;;;;;;7.45;4.40;;;;;;;;;;5016695;28;20491;-73
2021/06/07 10:27:31;;;;;;;4.43;3.53;;;;;;;;;;5016916;28;20068;-73
2021/06/07 10:29:56;;;;;;;5.75;3.50;;;;;;;;;;5016061;28;20053;-73
2021/06/07 10:32:25;;;;;;;5.78;3.53;;;;;;;;;;4999977;28;20037;-73
2021/06/07 10:35:02;;;;;;;5.65;3.53;;;;;;;;;;5000426;28;20506;-73
2021/06/07 10:37:29;;;;;;;4.80;2.95;;;;;;;;;;5001692;28;20075;-73
2021/06/07 10:40:19;;;;;;;5.30;3.10;;;;;;;;;;4999590;28;20143;-73
2021/06/07 10:42:57;;;;;;;8.40;5.35;;;;;;;;;;5031508;28;20029;-73
2021/06/07 10:45:24;;;;;;;8.00;4.93;;;;;;;;;;5032083;28;20041;-75
2021/06/07 10:47:50;;;;;;;6.63;5.03;;;;;;;;;;4999737;28;20037;-75
2021/06/07 10:50:23;;;;;;;7.90;4.78;;;;;;;;;;4981950;28;20476;-75
2021/06/07 10:52:51;;;;;;;6.88;4.30;;;;;;;;;;5014253;28;20041;-75
2021/06/07 10:55:21;;;;;;;5.95;4.80;;;;;;;;;;4995739;28;20030;-75
2021/06/07 10:57:46;;;;;;;6.75;4.00;;;;;;;;;;4995734;28;20053;-75
2021/06/07 11:00:16;;;;;;;4.55;3.60;;;;;;;;;;5028290;28;20034;-75
2021/06/07 11:02:43;;;;;;;6.95;4.05;;;;;;;;;;5031747;28;20082;-75
2021/06/07 11:05:16;;;;;;;5.35;3.95;;;;;;;;;;5000012;28;20025;-75
2021/06/07 11:07:45;;;;;;;;;;;;;;;;;;5016219;28;20068;-75
2021/06/07 11:10:19;;;;;;;5.88;3.95;;;;;;;;;;5032431;28;19916;-75
2021/06/07 11:12:45;;;;;;;4.43;3.30;;;;;;;;;;5031825;28;20422;-76
2021/06/07 11:15:21;;;;;;;5.18;3.17;;;;;;;;;;5015835;28;20099;-75
2021/06/07 11:17:50;;;;;;;4.63;2.95;;;;;;;;;;5016326;28;20021;-75
2021/06/07 11:20:34;;;;;;;4.10;3.10;;;;;;;;;;5015550;28;20038;-75
2021/06/07 11:23:04;;;;;;;5.47;3.05;;;;;;;;;;4999175;28;20399;-75
2021/06/07 11:25:30;;;;;;;5.35;3.08;;;;;;;;;;5032519;28;20442;-75
2021/06/07 11:27:55;;;;;;;4.45;3.00;;;;;;;;;;5015048;28;20052;-75
2021/06/07 11:30:21;;;;;;;4.63;3.05;;;;;;;;;;5014840;28;20033;-75
2021/06/07 11:32:47;;;;;;;5.00;3.03;;;;;;;;;;5015192;28;20083;-75
2021/06/07 11:35:43;;;;;;;4.50;2.80;;;;;;;;;;5015530;28;20483;-75
2021/06/07 11:38:32;;;;;;;3.90;2.80;;;;;;;;;;5015198;28;20056;-75
2021/06/07 11:41:02;;;;;;;3.65;2.33;;;;;;;;;;4998826;28;20033;-75
2021/06/07 11:43:46;;;;;;;4.28;2.80;;;;;;;;;;5015163;28;20036;-75
2021/06/07 11:46:37;;;;;;;3.08;2.33;;;;;;;;;;5031757;28;20039;-75
2021/06/07 11:49:12;;;;;;;3.65;2.80;;;;;;;;;;5008407;28;20038;-75
2021/06/07 11:51:37;;;;;;;3.95;2.58;;;;;;;;;;5031589;28;20032;-75
2021/06/07 11:54:25;;;;;;;3.20;2.30;;;;;;;;;;5014315;28;20025;-75
2021/06/07 11:57:00;;;;;;;2.80;2.30;;;;;;;;;;5031401;28;20076;-75
2021/06/07 11:59:27;;;;;;;3.10;2.08;;;;;;;;;;4998769;28;20114;-75
2021/06/07 12:01:52;;;;;;;3.65;2.40;;;;;;;;;;5027976;28;20112;-75
2021/06/07 12:04:24;;;;;;;5.57;2.15;;;;;;;;;;4994848;28;20591;-75
2021/06/07 12:06:50;;;;;;;3.42;2.20;;;;;;;;;;4995375;28;20033;-75
2021/06/07 12:09:19;;;;;;;4.35;2.30;;;;;;;;;;4994265;28;20109;-75
2021/06/07 12:11:44;;;;;;;4.25;2.20;;;;;;;;;;4978510;28;20095;-77
2021/06/07 12:14:10;;;;;;;3.30;2.00;;;;;;;;;;4994594;28;20045;-76
2021/06/07 12:16:38;;;;;;;3.17;2.45;;;;;;;;;;4994538;28;20037;-77
2021/06/07 12:19:09;;;;;;;5.15;2.13;;;;;;;;;;4990598;28;20029;-76
2021/06/07 12:21:35;;;;;;;4.43;2.40;;;;;;;;;;5030349;28;20061;-77
2021/06/07 12:24:07;;;;;;;3.53;2.35;;;;;;;;;;5013200;28;20411;-77
2021/06/07 12:29:37;;;;;;;6.90;5.25;;;;;;;;;;5016782;28;20124;-77
2021/06/07 12:32:02;;;;;;;7.70;5.60;;;;;;;;;;4998102;28;20095;-77
2021/06/07 12:34:28;;;;;;;9.52;6.53;;;;;;;;;;5030361;28;20033;-77
2021/06/07 12:36:53;;;;;;;8.55;6.15;;;;;;;;;;5013776;28;20502;-76
2021/06/07 12:39:19;;;;;;;8.00;6.07;;;;;;;;;;5014212;28;20033;-76
2021/06/07 12:41:45;;;;;;;6.28;4.75;;;;;;;;;;5013602;28;20098;-76
2021/06/07 12:44:10;;;;;;;6.25;5.47;;;;;;;;;;5011356;28;20061;-77
2021/06/07 12:46:49;;;;;;;7.32;5.10;;;;;;;;;;5013332;28;20383;-77
2021/06/07 12:49:28;;;;;;;8.05;5.72;;;;;;;;;;5014280;28;20051;-77
2021/06/07 12:52:04;;;;;;;6.53;4.75;;;;;;;;;;5014646;28;20386;-77
2021/06/07 12:54:31;;;;;;;7.90;5.20;;;;;;;;;;5012521;28;20036;-77
2021/06/07 12:57:00;;;;;;;6.43;4.97;;;;;;;;;;5010727;28;20092;-77
2021/06/07 12:59:33;;;;;;;7.85;5.00;;;;;;;;;;4978389;28;20504;-78
2021/06/07 13:01:58;;;;;;;6.00;4.70;;;;;;;;;;5003221;28;20037;-78
2021/06/07 13:04:28;;;;;;;6.32;4.43;;;;;;;;;;5010407;28;20061;-78
2021/06/07 13:06:54;;;;;;;6.90;4.25;;;;;;;;;;4996515;28;20172;-77
2021/06/07 13:09:36;;;;;;;5.68;4.55;;;;;;;;;;5014268;28;20026;-77
2021/06/07 13:12:02;;;;;;;4.57;3.60;;;;;;;;;;5014349;28;20033;-78
2021/06/07 13:14:28;;;;;;;5.20;3.85;;;;;;;;;;5013940;28;20053;-78
2021/06/07 13:16:56;;;;;;;5.80;4.35;;;;;;;;;;5017332;28;20041;-76
2021/06/07 13:19:26;;;;;;;5.10;3.88;;;;;;;;;;5002130;28;20088;-76
2021/06/07 13:21:58;;;;;;;;;;;;;;;;;;5018464;28;20037;-76
2021/06/07 13:24:26;;;;;;;5.10;3.80;;;;;;;;;;5034384;28;19927;-76
2021/06/07 13:27:17;;;;;;;5.78;3.70;;;;;;;;;;5035387;28;20029;-76
2021/06/07 13:30:13;;;;;;;4.97;4.03;;;;;;;;;;5017102;28;20160;-76
2021/06/07 13:32:39;;;;;;;8.63;4.22;;;;;;;;;;5033336;28;20057;-75
2021/06/07 13:35:06;;;;;;;6.72;4.22;;;;;;;;;;5017656;28;20104;-75
2021/06/07 13:37:33;;;;;;;6.68;4.32;;;;;;;;;;5017311;28;20037;-76
2021/06/07 13:40:20;;;;;;;7.07;4.63;;;;;;;;;;5000531;28;20479;-76
2021/06/07 13:42:46;;;;;;;6.00;4.03;;;;;;;;;;5035329;28;20087;-76
2021/06/07 13:45:13;;;;;;;6.45;4.60;;;;;;;;;;5034847;28;20049;-76
2021/06/07 13:47:40;;;;;;;7.53;4.25;;;;;;;;;;5001112;28;20475;-76
2021/06/07 13:50:05;;;;;;;5.00;3.95;;;;;;;;;;5017136;28;20033;-75
2021/06/07 13:53:05;;;;;;;5.40;3.60;;;;;;;;;;5034365;28;20033;-76
2021/06/07 13:55:34;;;;;;;5.63;3.60;;;;;;;;;;5033640;28;20033;-76
2021/06/07 13:58:05;;;;;;;7.38;3.60;;;;;;;;;;5034779;28;20041;-76
2021/06/07 14:00:38;;;;;;;6.00;3.17;;;;;;;;;;5033504;28;20443;-76
2021/06/07 14:03:17;;;;;;;5.45;3.22;;;;;;;;;;5016989;28;20052;-75
2021/06/07 14:05:43;;;;;;;5.65;3.17;;;;;;;;;;5018166;28;20105;-76
2021/06/07 14:08:10;;;;;;;6.57;3.33;;;;;;;;;;4996766;28;20112;-76
2021/06/07 14:10:36;;;;;;;3.72;2.83;;;;;;;;;;5000926;28;20136;-76
2021/06/07 14:13:01;;;;;;;5.80;3.17;;;;;;;;;;5031996;28;20117;-76
2021/06/07 14:15:28;;;;;;;5.25;3.30;;;;;;;;;;5000175;28;20439;-76
2021/06/07 14:17:53;;;;;;;4.07;2.70;;;;;;;;;;5016877;28;20476;-76
2021/06/07 14:20:19;;;;;;;4.75;3.15;;;;;;;;;;4984155;28;20029;-76
2021/06/07 14:25:35;;;;;;;4.38;2.75;;;;;;;;;;5032553;28;20025;-76
2021/06/07 14:28:01;;;;;;;;;;;;;;;;;;5017527;28;20046;-76
2021/06/07 14:30:26;;;;;;;3.40;2.75;;;;;;;;;;5007340;28;19917;-76
2021/06/07 14:32:52;;;;;;;4.43;2.83;;;;;;;;;;4996730;28;20112;-76
2021/06/07 14:35:17;;;;;;;3.97;2.75;;;;;;;;;;4999917;28;20040;-76
2021/06/07 14:37:43;;;;;;;4.05;2.75;;;;;;;;;;5032335;28;20156;-76
2021/06/07 14:40:09;;;;;;;3.53;2.75;;;;;;;;;;5016437;28;20052;-76
2021/06/07 14:42:34;;;;;;;4.60;2.60;;;;;;;;;;5032812;28;20026;-76
2021/06/07 14:45:00;;;;;;;3.70;2.70;;;;;;;;;;5016156;28;20483;-76
2021/06/07 14:47:27;;;;;;;3.55;2.47;;;;;;;;;;5016352;28;20172;-76
2021/06/07 14:49:53;;;;;;;3.17;2.60;;;;;;;;;;5031995;28;20053;-76
2021/06/07 14:52:18;;;;;;;3.33;2.40;;;;;;;;;;4999588;28;20476;-76